Time;durP1;ratioP1;P1;durP2;ratioP2;P2;SDS_P1;SDS_P2;PMS_P1;PMS_P2;Temp;Humidity;BMP_temperature;BMP_pressure;BME280_temperature;BME280_humidity;BME280_pressure;Samples;Min_cycle;Max_cycle;Signal;HPM_P1;HPM_P2
2024/02/28 00:01:38;;;;;;;26.73;18.17;;;;;;;4.65;83.81;101166.75;5055602;28;20881;-83
2024/02/28 00:04:05;;;;;;;22.50;16.67;;;;;;;4.62;83.55;101166.84;5059351;28;20212;-83
2024/02/28 00:06:32;;;;;;;22.37;16.00;;;;;;;4.59;83.14;101168.69;5061121;28;20217;-82
2024/02/28 00:08:58;;;;;;;21.03;16.50;;;;;;;4.53;83.07;101170.59;5059148;28;20667;-82
2024/02/28 00:11:25;;;;;;;21.10;15.80;;;;;;;4.51;82.76;101167.13;5048766;28;20198;-82
2024/02/28 00:13:52;;;;;;;21.13;15.13;;;;;;;4.44;81.94;101165.63;5053455;28;20685;-83
2024/02/28 00:16:19;;;;;;;24.23;17.40;;;;;;;4.41;82.08;101163.06;5053793;28;20259;-83
2024/02/28 00:18:45;;;;;;;25.73;18.43;;;;;;;4.36;82.19;101167.59;5055922;28;20204;-82
2024/02/28 00:21:13;;;;;;;25.07;18.70;;;;;;;4.33;81.93;101172.97;5052655;28;20835;-82
2024/02/28 00:23:40;;;;;;;22.93;17.87;;;;;;;4.34;82.57;101179.09;5045821;28;20210;-82
2024/02/28 00:26:06;;;;;;;25.07;18.10;;;;;;;4.32;82.50;101170.38;5037509;28;20207;-82
2024/02/28 00:28:33;;;;;;;24.70;17.87;;;;;;;4.31;82.94;101176.53;5056353;28;20201;-83
2024/02/28 00:30:59;;;;;;;23.27;16.93;;;;;;;4.30;82.97;101177.47;5056124;28;20280;-83
2024/02/28 00:33:26;;;;;;;23.93;17.83;;;;;;;4.26;83.31;101181.97;5056130;28;20229;-83
2024/02/28 00:35:53;;;;;;;27.73;17.87;;;;;;;4.25;83.51;101182.03;5056235;28;20205;-81
2024/02/28 00:38:22;;;;;;;27.77;18.83;;;;;;;4.22;83.62;101185.59;5056144;28;20707;-83
2024/02/28 00:40:48;;;;;;;25.93;18.20;;;;;;;4.18;83.49;101187.47;5055587;28;20728;-84
2024/02/28 00:43:15;;;;;;;27.37;18.80;;;;;;;4.16;84.26;101189.28;5064040;28;20216;-83
2024/02/28 00:45:41;;;;;;;30.93;18.97;;;;;;;4.15;84.19;101197.22;5075611;28;20205;-81
2024/02/28 00:48:08;;;;;;;25.43;18.17;;;;;;;4.11;84.35;101196.47;5063316;28;20203;-84
2024/02/28 00:50:34;;;;;;;25.70;18.30;;;;;;;4.09;84.22;101202.69;5065376;28;20319;-82
2024/02/28 00:53:01;;;;;;;27.03;18.40;;;;;;;4.06;84.67;101195.72;5055833;28;20240;-83
2024/02/28 00:55:29;;;;;;;27.93;19.23;;;;;;;4.02;84.34;101187.94;5066086;28;20211;-81
2024/02/28 00:57:55;;;;;;;29.47;19.03;;;;;;;3.98;84.77;101184.50;5062909;28;20202;-81
2024/02/28 01:00:22;;;;;;;28.57;18.53;;;;;;;3.96;85.20;101194.22;5060255;28;20216;-81
2024/02/28 01:02:48;;;;;;;26.57;18.70;;;;;;;3.92;85.34;101189.97;5068251;28;20229;-83
2024/02/28 01:05:15;;;;;;;27.30;19.07;;;;;;;3.91;85.72;101187.38;5060461;28;20206;-83
2024/02/28 01:07:41;;;;;;;27.90;18.70;;;;;;;3.88;85.21;101187.47;5056823;28;20201;-83
2024/02/28 01:10:08;;;;;;;25.20;18.37;;;;;;;3.84;85.63;101181.41;5057312;28;20220;-83
2024/02/28 01:12:36;;;;;;;24.80;18.80;;;;;;;3.78;85.47;101185.06;5066178;28;20221;-82
2024/02/28 01:15:03;;;;;;;21.93;16.83;;;;;;;3.74;85.36;101177.28;5062629;28;20202;-84
2024/02/28 01:17:30;;;;;;;23.87;16.97;;;;;;;3.66;85.57;101181.88;5056263;28;20209;-84
2024/02/28 01:19:56;;;;;;;26.13;18.33;;;;;;;3.61;85.46;101189.03;5054543;28;20271;-82
2024/02/28 01:22:23;;;;;;;23.80;16.80;;;;;;;3.55;85.63;101199.75;5054708;28;20237;-84
2024/02/28 01:24:49;;;;;;;27.73;18.10;;;;;;;3.51;85.64;101200.72;5063899;28;20209;-83
2024/02/28 01:27:16;;;;;;;26.43;17.93;;;;;;;3.48;86.36;101199.03;5055359;28;20216;-83
2024/02/28 01:29:44;;;;;;;27.97;18.30;;;;;;;3.43;86.05;101191.25;5055712;28;20205;-83
2024/02/28 01:32:10;;;;;;;25.13;17.60;;;;;;;3.40;86.85;101190.47;5056309;28;20236;-81
2024/02/28 01:34:37;;;;;;;27.07;17.90;;;;;;;3.34;86.61;101180.09;5056400;28;20760;-83
2024/02/28 01:37:03;;;;;;;28.57;18.40;;;;;;;3.31;86.33;101181.03;5056603;28;20212;-82
2024/02/28 01:39:30;;;;;;;26.43;17.77;;;;;;;3.27;87.00;101184.63;5065971;28;20212;-83
2024/02/28 01:41:57;;;;;;;27.03;17.47;;;;;;;3.18;85.84;101195.41;5076458;28;20221;-82
2024/02/28 01:44:23;;;;;;;24.90;16.20;;;;;;;3.07;85.79;101186.88;5076395;28;20259;-84
2024/02/28 01:46:54;;;;;;;26.43;17.83;;;;;;;2.97;86.48;101195.91;5076941;28;20216;-83
2024/02/28 01:49:21;;;;;;;24.30;17.20;;;;;;;2.91;87.40;101193.41;5058568;28;20821;-82
2024/02/28 01:51:47;;;;;;;24.77;17.60;;;;;;;2.87;87.46;101189.97;5052794;28;20231;-84
2024/02/28 01:54:14;;;;;;;28.40;18.33;;;;;;;2.84;88.22;101183.94;5049303;28;20210;-82
2024/02/28 01:56:42;;;;;;;26.43;17.50;;;;;;;2.82;88.43;101186.63;5054828;28;20202;-83
2024/02/28 01:59:11;;;;;;;28.90;18.77;;;;;;;2.78;88.59;101180.56;5053583;28;20217;-83
2024/02/28 02:01:37;;;;;;;28.27;17.83;;;;;;;2.74;88.02;101176.25;5050071;28;20230;-83
2024/02/28 02:04:05;;;;;;;26.00;17.70;;;;;;;2.71;89.10;101172.81;5053341;28;20564;-83
2024/02/28 02:06:32;;;;;;;26.77;17.80;;;;;;;2.67;88.27;101176.44;5050466;28;20210;-82
2024/02/28 02:08:59;;;;;;;28.70;17.90;;;;;;;2.62;89.57;101178.31;5054549;28;20213;-81
2024/02/28 02:11:25;;;;;;;29.10;18.27;;;;;;;2.58;89.54;101172.25;5058664;28;20186;-82
2024/02/28 02:13:53;;;;;;;31.83;19.90;;;;;;;2.54;90.01;101173.19;5051993;28;20204;-83
2024/02/28 02:16:22;;;;;;;30.57;19.37;;;;;;;2.53;89.71;101174.09;5055682;28;20194;-83
2024/02/28 02:18:48;;;;;;;29.03;19.17;;;;;;;2.53;90.71;101174.09;5057347;28;20202;-83
2024/02/28 02:21:19;;;;;;;30.07;18.43;;;;;;;2.49;90.69;101174.22;5057486;28;20205;-83
2024/02/28 02:23:47;;;;;;;31.37;19.83;;;;;;;2.47;90.82;101174.25;5055858;28;20217;-83
2024/02/28 02:26:13;;;;;;;29.27;18.60;;;;;;;2.46;90.75;101177.78;5061674;28;20196;-83
2024/02/28 02:28:40;;;;;;;29.13;18.37;;;;;;;2.42;90.97;101181.38;5066883;28;20197;-83
2024/02/28 02:31:06;;;;;;;28.40;18.23;;;;;;;2.40;92.02;101184.03;5063614;28;20220;-84
2024/02/28 02:33:33;;;;;;;31.03;19.17;;;;;;;2.39;92.15;101177.03;5054862;28;20225;-83
2024/02/28 02:35:59;;;;;;;28.73;18.47;;;;;;;2.38;92.44;101172.69;5059174;28;20723;-83
2024/02/28 02:38:26;;;;;;;26.37;17.20;;;;;;;2.39;92.01;101171.78;5060228;28;20208;-83
2024/02/28 02:40:54;;;;;;;29.57;18.23;;;;;;;2.37;92.61;101165.69;5054148;28;20214;-81
2024/02/28 02:43:20;;;;;;;29.03;18.37;;;;;;;2.36;93.08;101168.34;5054476;28;20221;-82
2024/02/28 02:45:47;;;;;;;30.93;18.30;;;;;;;2.36;93.18;101171.84;5053920;28;20206;-82
2024/02/28 02:48:13;;;;;;;37.00;20.10;;;;;;;2.36;93.85;101177.09;5055547;28;20216;-82
2024/02/28 02:50:40;;;;;;;34.60;18.83;;;;;;;2.36;93.45;101179.72;5055915;28;20202;-83
2024/02/28 02:53:10;;;;;;;30.33;18.90;;;;;;;2.37;93.89;101183.22;5055714;28;20229;-82
2024/02/28 02:55:36;;;;;;;37.27;21.00;;;;;;;2.37;94.76;101172.69;5064628;28;20209;-82
2024/02/28 02:58:04;;;;;;;36.50;20.00;;;;;;;2.35;94.80;101164.84;5075589;28;20204;-84
2024/02/28 03:00:31;;;;;;;32.73;19.50;;;;;;;2.37;94.79;101167.44;5075107;28;20216;-83
2024/02/28 03:02:57;;;;;;;33.43;19.13;;;;;;;2.38;94.35;101175.31;5059845;28;20221;-83
2024/02/28 03:05:24;;;;;;;26.57;17.23;;;;;;;2.36;94.75;101163.09;5069640;28;20649;-82
2024/02/28 03:07:50;;;;;;;25.07;16.17;;;;;;;2.30;94.12;101161.47;5074676;28;20618;-82
2024/02/28 03:10:17;;;;;;;25.73;15.70;;;;;;;2.23;92.88;101164.25;5074745;28;20209;-84
2024/02/28 03:12:43;;;;;;;28.37;16.70;;;;;;;2.19;94.05;101165.22;5065529;28;20224;-83
2024/02/28 03:15:11;;;;;;;25.07;16.87;;;;;;;2.14;93.32;101164.47;5067846;28;20211;-84
2024/02/28 03:17:38;;;;;;;28.30;18.17;;;;;;;2.09;93.42;101168.03;5074183;28;20729;-84
2024/02/28 03:20:07;;;;;;;30.07;17.80;;;;;;;2.06;93.22;101161.97;5050545;28;20197;-82
2024/02/28 03:22:33;;;;;;;27.57;17.03;;;;;;;2.02;92.62;101155.03;5051317;28;20237;-84
2024/02/28 03:24:59;;;;;;;25.43;16.77;;;;;;;1.92;91.94;101161.38;5053774;28;20204;-84
2024/02/28 03:27:26;;;;;;;28.60;17.47;;;;;;;1.84;92.17;101164.16;5063682;28;20725;-84
2024/02/28 03:29:52;;;;;;;30.03;18.20;;;;;;;1.79;91.79;101163.41;5057700;28;20214;-83
2024/02/28 03:32:20;;;;;;;25.50;15.97;;;;;;;1.74;92.76;101163.47;5055300;28;20217;-83
2024/02/28 03:34:47;;;;;;;28.27;17.77;;;;;;;1.71;92.91;101170.53;5053316;28;20210;-83
2024/02/28 03:37:13;;;;;;;28.90;17.53;;;;;;;1.67;92.50;101174.97;5059262;28;20212;-83
2024/02/28 03:39:40;;;;;;;28.10;17.40;;;;;;;1.62;92.63;101175.94;5059874;28;20805;-83
2024/02/28 03:42:07;;;;;;;28.07;16.63;;;;;;;1.58;92.53;101184.78;5058939;28;20583;-81
2024/02/28 03:44:33;;;;;;;26.60;16.63;;;;;;;1.53;92.16;101189.25;5061401;28;20201;-83
2024/02/28 03:47:00;;;;;;;31.40;17.43;;;;;;;1.48;92.66;101199.81;5056354;28;20201;-83
2024/02/28 03:49:27;;;;;;;33.20;18.43;;;;;;;1.46;92.65;101200.75;5054031;28;20201;-82
2024/02/28 03:51:54;;;;;;;29.27;16.70;;;;;;;1.44;93.66;101213.88;5055218;28;20225;-83
2024/02/28 03:54:20;;;;;;;31.63;18.33;;;;;;;1.42;94.20;101210.44;5059043;28;20228;-82
2024/02/28 03:56:47;;;;;;;32.03;19.33;;;;;;;1.43;94.51;101211.31;5060079;28;20206;-83
2024/02/28 03:59:13;;;;;;;39.80;20.77;;;;;;;1.43;95.33;101216.56;5060659;28;20243;-82
2024/02/28 04:01:40;;;;;;;30.23;18.17;;;;;;;1.45;95.61;101225.25;5059873;28;20231;-82
2024/02/28 04:04:07;;;;;;;28.63;16.03;;;;;;;1.44;95.85;101229.63;5059090;28;20202;-82
2024/02/28 04:06:35;;;;;;;26.97;16.33;;;;;;;1.40;95.07;101230.59;5058806;28;20224;-83
2024/02/28 04:09:02;;;;;;;27.37;16.53;;;;;;;1.30;93.90;101229.88;5058316;28;20201;-83
2024/02/28 04:11:29;;;;;;;26.00;16.27;;;;;;;1.21;94.10;101231.78;5058866;28;20228;-82
2024/02/28 04:13:55;;;;;;;27.70;17.10;;;;;;;1.14;93.62;101227.50;5060118;28;20703;-82
2024/02/28 04:16:22;;;;;;;26.60;16.53;;;;;;;1.09;93.89;101224.94;5059104;28;20206;-83
2024/02/28 04:18:48;;;;;;;27.33;16.70;;;;;;;1.03;93.87;101235.56;5059908;28;20678;-84
2024/02/28 04:21:15;;;;;;;28.00;16.27;;;;;;;0.97;94.10;101238.25;5060954;28;20201;-83
2024/02/28 04:23:43;;;;;;;32.60;17.47;;;;;;;0.93;94.47;101239.19;5058224;28;20229;-84
2024/02/28 04:26:10;;;;;;;26.30;16.27;;;;;;;0.92;95.13;101237.44;5055492;28;20788;-83
2024/02/28 04:28:37;;;;;;;27.33;16.77;;;;;;;0.88;94.95;101233.16;5057299;28;20238;-83
2024/02/28 04:31:03;;;;;;;25.87;16.43;;;;;;;0.86;95.23;101235.81;5057419;28;20215;-84
2024/02/28 04:33:30;;;;;;;30.23;18.50;;;;;;;0.84;95.02;101236.72;5056131;28;20222;-82
2024/02/28 04:35:56;;;;;;;35.23;18.20;;;;;;;0.81;95.02;101249.88;5054569;28;20198;-83
2024/02/28 04:38:23;;;;;;;31.63;17.70;;;;;;;0.77;95.57;101256.03;5053872;28;20205;-81
2024/02/28 04:40:51;;;;;;;29.63;17.37;;;;;;;0.74;95.10;101254.31;5059635;28;20209;-82
2024/02/28 04:43:17;;;;;;;32.73;17.67;;;;;;;0.72;95.82;101244.75;5055227;28;20709;-83
2024/02/28 04:45:43;;;;;;;32.40;17.40;;;;;;;0.68;95.85;101242.19;5056908;28;20575;-83
2024/02/28 04:48:10;;;;;;;29.80;16.37;;;;;;;0.65;95.54;101236.97;5057498;28;20202;-82
2024/02/28 04:50:36;;;;;;;30.60;17.57;;;;;;;0.63;95.94;101241.34;5065631;28;20211;-83
2024/02/28 04:53:03;;;;;;;27.27;16.30;;;;;;;0.62;96.12;101246.63;5052639;28;20233;-83
2024/02/28 04:55:30;;;;;;;28.73;15.87;;;;;;;0.58;96.19;101244.91;5057356;28;20202;-83
2024/02/28 04:57:57;;;;;;;31.43;17.20;;;;;;;0.58;96.53;101245.78;5057971;28;20209;-82
2024/02/28 05:00:24;;;;;;;29.93;16.30;;;;;;;0.55;96.33;101253.69;5061212;28;20255;-82
2024/02/28 05:02:50;;;;;;;31.77;16.57;;;;;;;0.53;96.63;101258.09;5056793;28;20229;-83
2024/02/28 05:05:22;;;;;;;28.37;15.90;;;;;;;0.49;96.76;101261.66;5055445;28;20240;-82
2024/02/28 05:07:54;;;;;;;29.70;16.70;;;;;;;0.46;97.07;101272.16;5056710;28;20263;-82
2024/02/28 05:10:23;;;;;;;31.03;16.87;;;;;;;0.44;96.93;101271.31;5058477;28;20220;-83
2024/02/28 05:12:50;;;;;;;33.60;17.40;;;;;;;0.43;97.38;101269.56;5053944;28;20225;-84
2024/02/28 05:15:19;;;;;;;29.60;17.43;;;;;;;0.39;97.03;101270.47;5054792;28;20198;-82
2024/02/28 05:17:47;;;;;;;32.63;17.83;;;;;;;0.36;97.63;101270.50;5047204;28;20224;-82
2024/02/28 05:20:24;;;;;;;;;;;;;;;;;;;;;
2024/02/28 05:22:50;;;;;;;33.27;17.80;;;;;;;0.29;97.97;101281.97;5052929;28;20229;-83
2024/02/28 05:25:17;;;;;;;35.73;17.50;;;;;;;0.25;98.19;101283.75;5067259;28;20699;-84
2024/02/28 05:27:44;;;;;;;32.03;18.00;;;;;;;0.24;98.67;101291.63;5056747;28;20197;-84
2024/02/28 05:30:11;;;;;;;33.27;17.87;;;;;;;0.24;98.95;101304.72;5054432;28;20202;-83
2024/02/28 05:32:39;;;;;;;37.67;18.30;;;;;;;0.23;99.10;101305.59;5052569;28;20229;-83
2024/02/28 05:35:07;;;;;;;33.10;18.43;;;;;;;0.23;99.32;101308.22;5060146;28;20573;-82
2024/02/28 05:37:34;;;;;;;34.73;18.83;;;;;;;0.21;99.48;101304.75;5054867;28;20237;-83
2024/02/28 05:40:01;;;;;;;34.60;18.47;;;;;;;0.21;99.34;101308.22;5055472;28;20233;-82
2024/02/28 05:42:28;;;;;;;34.13;18.37;;;;;;;0.18;98.97;101302.19;5052018;28;20259;-82
2024/02/28 05:44:55;;;;;;;30.97;17.13;;;;;;;0.12;98.60;101313.59;5048505;28;20704;-82
2024/02/28 05:47:21;;;;;;;31.83;17.87;;;;;;;0.08;98.79;101316.25;5053531;28;20212;-84
2024/02/28 05:49:49;;;;;;;33.53;17.37;;;;;;;0.04;98.68;101314.53;5062150;28;20564;-82
2024/02/28 05:52:15;;;;;;;30.83;17.33;;;;;;;0.00;98.89;101308.47;5047347;28;20228;-83
2024/02/28 05:54:42;;;;;;;27.67;16.30;;;;;;;-0.03;98.84;101314.59;5053006;28;20209;-83
2024/02/28 05:57:09;;;;;;;30.93;16.23;;;;;;;-0.03;99.30;101313.72;5070621;28;20208;-83
2024/02/28 05:59:35;;;;;;;33.70;16.80;;;;;;;-0.03;99.96;101321.59;5054746;28;20278;-82
2024/02/28 06:02:02;;;;;;;35.53;18.90;;;;;;;-0.02;100.00;101328.56;5050088;28;20234;-82
2024/02/28 06:04:28;;;;;;;33.03;18.40;;;;;;;0.00;100.00;101332.03;5050018;28;20217;-83
2024/02/28 06:06:56;;;;;;;37.23;18.77;;;;;;;0.00;100.00;101329.44;5050123;28;20297;-82
2024/02/28 06:09:22;;;;;;;35.77;19.60;;;;;;;0.00;100.00;101330.25;5040027;28;20206;-83
2024/02/28 06:11:49;;;;;;;34.63;18.20;;;;;;;0.03;100.00;101328.50;5052299;28;20225;-83
2024/02/28 06:14:16;;;;;;;31.57;18.13;;;;;;;-0.01;100.00;101333.78;5054038;28;20205;-83
2024/02/28 06:16:42;;;;;;;31.00;17.40;;;;;;;-0.04;100.00;101333.81;5063756;28;20241;-83
2024/02/28 06:19:09;;;;;;;34.23;17.63;;;;;;;-0.05;100.00;101352.16;5053678;28;20205;-81
2024/02/28 06:21:35;;;;;;;32.63;18.23;;;;;;;-0.07;100.00;101344.31;5065275;28;20225;-78
2024/02/28 06:24:04;;;;;;;33.97;16.90;;;;;;;-0.09;100.00;101346.06;5070299;28;20232;-81
2024/02/28 06:26:31;;;;;;;31.60;17.97;;;;;;;-0.11;100.00;101355.69;5075042;28;20255;-80
2024/02/28 06:29:01;;;;;;;33.80;17.33;;;;;;;-0.13;100.00;101356.56;5073543;28;20209;-80
2024/02/28 06:31:29;;;;;;;33.27;17.63;;;;;;;-0.12;100.00;101351.31;5065730;28;20209;-79
2024/02/28 06:33:55;;;;;;;33.30;16.80;;;;;;;-0.12;100.00;101355.69;5051873;28;20207;-79
2024/02/28 06:36:22;;;;;;;29.67;16.67;;;;;;;-0.12;100.00;101361.78;5052082;28;20577;-80
2024/02/28 06:38:48;;;;;;;32.10;17.93;;;;;;;-0.11;100.00;101358.31;5052365;28;20801;-79
2024/02/28 06:41:17;;;;;;;36.97;18.27;;;;;;;-0.08;100.00;101362.66;5071150;28;20197;-79
2024/02/28 06:43:45;;;;;;;39.33;19.10;;;;;;;-0.05;100.00;101367.88;5071501;28;20617;-80
2024/02/28 06:46:12;;;;;;;39.73;19.73;;;;;;;-0.01;100.00;101364.34;5031952;28;20301;-80
2024/02/28 06:48:38;;;;;;;38.90;18.77;;;;;;;0.04;100.00;101369.53;5042391;28;20547;-80
2024/02/28 06:51:05;;;;;;;37.20;18.57;;;;;;;0.10;100.00;101361.63;5061599;28;20236;-79
2024/02/28 06:53:31;;;;;;;41.73;20.60;;;;;;;0.15;100.00;101367.69;5050985;28;20234;-80
2024/02/28 06:55:58;;;;;;;37.70;18.80;;;;;;;0.19;100.00;101361.50;5053281;28;20209;-80
2024/02/28 06:58:25;;;;;;;41.67;21.30;;;;;;;0.24;100.00;101362.34;5032968;28;20301;-80
2024/02/28 07:00:52;;;;;;;45.43;22.33;;;;;;;0.27;100.00;101364.94;5033139;28;20539;-80
2024/02/28 07:03:18;;;;;;;46.60;21.50;;;;;;;0.30;100.00;101365.78;5032444;28;20287;-79
2024/02/28 07:05:45;;;;;;;42.73;20.80;;;;;;;0.36;100.00;101366.63;5031901;28;20213;-79
2024/02/28 07:08:12;;;;;;;41.70;20.87;;;;;;;0.41;100.00;101365.66;5041969;28;20306;-81
2024/02/28 07:10:42;;;;;;;45.20;21.80;;;;;;;0.45;100.00;101375.25;5058607;28;20284;-80
2024/02/28 07:13:08;;;;;;;39.50;20.07;;;;;;;0.49;100.00;101376.09;5052014;28;20230;-79
2024/02/28 07:15:36;;;;;;;42.77;19.60;;;;;;;0.51;100.00;101369.94;5052209;28;20693;-80
2024/02/28 07:18:02;;;;;;;42.73;20.60;;;;;;;0.54;100.00;101375.13;5052478;28;20662;-80
2024/02/28 07:20:29;;;;;;;44.33;21.30;;;;;;;0.58;100.00;101376.84;5066696;28;20230;-80
2024/02/28 07:22:55;;;;;;;45.30;22.10;;;;;;;0.64;100.00;101381.16;5071806;28;20229;-80
2024/02/28 07:25:21;;;;;;;43.53;20.07;;;;;;;0.68;100.00;101391.59;5060824;28;20228;-79
2024/02/28 07:27:48;;;;;;;44.43;21.17;;;;;;;0.74;100.00;101387.16;5051768;28;20216;-80
2024/02/28 07:30:15;;;;;;;47.07;21.90;;;;;;;0.80;100.00;101387.97;5052149;28;20215;-79
2024/02/28 07:32:42;;;;;;;51.63;23.37;;;;;;;0.88;100.00;101391.38;5066052;28;20618;-80
2024/02/28 07:35:09;;;;;;;46.57;22.47;;;;;;;0.93;100.00;101388.66;5071810;28;20201;-80
2024/02/28 07:37:37;;;;;;;49.93;21.10;;;;;;;0.96;100.00;101396.50;5052377;28;20224;-80
2024/02/28 07:40:04;;;;;;;51.50;24.27;;;;;;;1.02;100.00;101391.19;5051397;28;20208;-80
2024/02/28 07:42:31;;;;;;;52.83;22.37;;;;;;;1.14;100.00;101401.53;5051057;28;20236;-80
2024/02/28 07:44:57;;;;;;;50.67;22.47;;;;;;;1.18;100.00;101390.13;5051372;28;20232;-80
2024/02/28 07:47:24;;;;;;;53.67;23.87;;;;;;;1.25;100.00;101391.78;5051522;28;20578;-79
2024/02/28 07:49:53;;;;;;;48.80;20.30;;;;;;;1.36;100.00;101384.63;5052720;28;20343;-79
2024/02/28 07:52:19;;;;;;;57.17;24.90;;;;;;;1.38;100.00;101395.97;5052684;28;20709;-79
2024/02/28 07:54:46;;;;;;;50.47;22.77;;;;;;;1.38;100.00;101388.09;5052172;28;20205;-79
2024/02/28 07:57:14;;;;;;;55.27;24.13;;;;;;;1.47;100.00;101388.84;5052030;28;20213;-80
2024/02/28 07:59:40;;;;;;;54.23;22.70;;;;;;;1.51;100.00;101391.41;5052362;28;20206;-79
2024/02/28 08:02:07;;;;;;;49.33;22.40;;;;;;;1.55;100.00;101386.97;5051252;28;20222;-80
2024/02/28 08:04:34;;;;;;;55.67;23.27;;;;;;;1.61;100.00;101402.66;5051756;28;20229;-79
2024/02/28 08:07:01;;;;;;;54.03;25.20;;;;;;;1.66;100.00;101398.19;5052016;28;20213;-80
2024/02/28 08:09:29;;;;;;;54.57;25.43;;;;;;;1.70;100.00;101405.13;5051685;28;20661;-79
2024/02/28 08:11:55;;;;;;;61.13;25.70;;;;;;;1.77;100.00;101398.91;5053892;28;20244;-80
2024/02/28 08:14:22;;;;;;;53.47;23.83;;;;;;;1.81;100.00;101391.81;5055228;28;20214;-79
2024/02/28 08:16:48;;;;;;;56.20;23.77;;;;;;;1.85;100.00;101391.75;5055420;28;20265;-79
2024/02/28 08:19:14;;;;;;;57.57;24.13;;;;;;;1.95;100.00;101403.00;5055304;28;20205;-79
2024/02/28 08:21:41;;;;;;;56.80;25.80;;;;;;;1.98;100.00;101395.91;5055258;28;20229;-80
2024/02/28 08:24:09;;;;;;;59.80;25.93;;;;;;;2.07;100.00;101405.41;5055523;28;20229;-80
2024/02/28 08:26:36;;;;;;;58.47;25.47;;;;;;;2.12;100.00;101413.25;5055219;28;20209;-80
2024/02/28 08:29:02;;;;;;;62.27;23.93;;;;;;;2.15;100.00;101411.41;5054473;28;20719;-80
2024/02/28 08:31:29;;;;;;;58.40;25.60;;;;;;;2.20;100.00;101417.47;5054802;28;20205;-80
2024/02/28 08:33:55;;;;;;;65.87;27.20;;;;;;;2.21;100.00;101418.31;5054426;28;20201;-80
2024/02/28 08:36:22;;;;;;;55.07;23.00;;;;;;;2.27;100.00;101418.22;5055781;28;20247;-80
2024/02/28 08:38:48;;;;;;;55.43;22.67;;;;;;;2.31;100.00;101415.53;5055319;28;20213;-81
2024/02/28 08:41:17;;;;;;;59.40;24.27;;;;;;;2.41;100.00;101416.22;5054955;28;20201;-80
2024/02/28 08:43:43;;;;;;;61.83;25.83;;;;;;;2.50;100.00;101413.44;5054680;28;20253;-79
2024/02/28 08:46:15;;;;;;;61.23;24.80;;;;;;;2.56;100.00;101410.69;5054357;28;20206;-80
2024/02/28 08:48:43;;;;;;;59.77;26.40;;;;;;;2.60;100.00;101417.63;5054339;28;20221;-79
2024/02/28 08:51:09;;;;;;;60.13;25.30;;;;;;;2.69;100.00;101421.84;5055230;28;20206;-80
2024/02/28 08:53:35;;;;;;;57.57;24.93;;;;;;;2.75;100.00;101430.50;5055140;28;20237;-80
2024/02/28 08:56:02;;;;;;;59.93;24.73;;;;;;;2.85;100.00;101423.31;5055431;28;20212;-79
2024/02/28 08:58:30;;;;;;;54.37;23.97;;;;;;;2.88;100.00;101417.09;5055238;28;20217;-79
2024/02/28 09:00:56;;;;;;;53.97;23.60;;;;;;;2.96;100.00;101420.47;5055165;28;20216;-80
2024/02/28 09:03:23;;;;;;;61.97;25.07;;;;;;;3.04;100.00;101419.44;5054211;28;20233;-79
2024/02/28 09:05:49;;;;;;;59.27;25.97;;;;;;;3.14;100.00;101420.09;5053765;28;20269;-79
2024/02/28 09:08:16;;;;;;;56.07;23.63;;;;;;;3.25;100.00;101419.84;5054127;28;20231;-79
2024/02/28 09:10:42;;;;;;;53.80;23.80;;;;;;;3.39;100.00;101421.31;5054258;28;20209;-79
2024/02/28 09:13:10;;;;;;;53.43;23.47;;;;;;;3.45;100.00;101422.94;5054391;28;20240;-79
2024/02/28 09:15:37;;;;;;;49.03;21.77;;;;;;;3.53;100.00;101417.50;5054356;28;20244;-79
2024/02/28 09:18:04;;;;;;;43.63;20.13;;;;;;;3.53;100.00;101417.50;5054329;28;20210;-79
2024/02/28 09:20:31;;;;;;;45.27;20.43;;;;;;;3.54;100.00;101414.84;5054254;28;20435;-79
2024/02/28 09:22:57;;;;;;;40.93;20.67;;;;;;;3.57;100.00;101414.78;5053882;28;20241;-78
2024/02/28 09:25:24;;;;;;;38.43;19.37;;;;;;;3.66;100.00;101414.56;5054153;28;20229;-78
2024/02/28 09:27:50;;;;;;;45.60;20.43;;;;;;;3.73;100.00;101423.19;5053665;28;20205;-79
2024/02/28 09:30:18;;;;;;;44.23;20.67;;;;;;;3.78;100.00;101426.56;5053624;28;20213;-78
2024/02/28 09:32:47;;;;;;;40.37;21.47;;;;;;;3.84;99.57;101435.22;5054022;28;20231;-79
2024/02/28 09:35:13;;;;;;;38.60;18.97;;;;;;;3.90;98.81;101438.63;5054016;28;20616;-79
2024/02/28 09:37:40;;;;;;;38.93;20.47;;;;;;;3.90;98.65;101426.31;5053890;28;20210;-79
2024/02/28 09:40:10;;;;;;;36.60;19.50;;;;;;;3.94;98.22;101430.56;5053311;28;20216;-79
2024/02/28 09:42:37;;;;;;;43.03;21.60;;;;;;;3.99;98.15;101425.22;5053259;28;20233;-79
2024/02/28 09:45:05;;;;;;;41.10;19.87;;;;;;;4.10;97.34;101436.38;5052937;28;20225;-78
2024/02/28 09:47:32;;;;;;;48.73;23.13;;;;;;;4.11;97.14;101438.97;5052985;28;20206;-79
2024/02/28 09:50:02;;;;;;;43.57;20.27;;;;;;;4.19;97.44;101439.66;5052970;28;20747;-79
2024/02/28 09:52:29;;;;;;;45.23;21.73;;;;;;;4.27;97.35;101446.50;5052525;28;20316;-78
2024/02/28 09:54:55;;;;;;;46.03;22.80;;;;;;;4.32;96.92;101437.56;5052560;28;20192;-79
2024/02/28 09:57:28;;;;;;;44.30;21.13;;;;;;;4.37;95.84;101448.00;5052828;28;20209;-78
2024/02/28 09:59:56;;;;;;;41.40;20.80;;;;;;;4.41;95.77;101436.47;5053420;28;20189;-79
2024/02/28 10:02:25;;;;;;;42.23;22.23;;;;;;;4.48;95.47;101448.59;5053028;28;20244;-79
2024/02/28 10:04:53;;;;;;;39.93;21.53;;;;;;;4.59;94.88;101440.41;5053182;28;20225;-79
2024/02/28 10:07:21;;;;;;;42.30;21.07;;;;;;;4.59;94.16;101454.47;5053133;28;20213;-78
2024/02/28 10:09:48;;;;;;;42.90;21.27;;;;;;;4.65;93.85;101451.69;5053267;28;20232;-79
2024/02/28 10:12:15;;;;;;;44.80;23.30;;;;;;;4.66;93.31;101461.31;5052959;28;20225;-78
2024/02/28 10:14:41;;;;;;;42.10;21.87;;;;;;;4.70;92.94;101457.69;5052752;28;20205;-79
2024/02/28 10:17:08;;;;;;;43.33;22.23;;;;;;;4.71;92.85;101455.91;5052283;28;20209;-79
2024/02/28 10:19:35;;;;;;;43.27;21.90;;;;;;;4.76;92.79;101460.16;5052496;28;20620;-80
2024/02/28 10:22:01;;;;;;;43.17;22.43;;;;;;;4.78;92.60;101461.00;5052228;28;20725;-78
2024/02/28 10:24:29;;;;;;;42.63;21.60;;;;;;;4.85;93.18;101470.47;5052016;28;20225;-80
2024/02/28 10:26:56;;;;;;;43.30;20.83;;;;;;;4.97;93.07;101471.94;5052650;28;20583;-79
2024/02/28 10:29:23;;;;;;;44.53;21.53;;;;;;;5.10;92.73;101475.09;5052185;28;20272;-78
2024/02/28 10:31:49;;;;;;;43.93;21.27;;;;;;;5.13;91.88;101475.88;5052684;28;20240;-79
2024/02/28 10:34:17;;;;;;;40.90;21.87;;;;;;;5.15;90.70;101479.34;5051773;28;20209;-78
2024/02/28 10:36:45;;;;;;;41.17;20.83;;;;;;;5.18;90.38;101484.56;5052205;28;20210;-78
2024/02/28 10:39:12;;;;;;;44.53;22.50;;;;;;;5.26;91.24;101480.81;5052239;28;20213;-78
2024/02/28 10:41:41;;;;;;;43.40;21.27;;;;;;;5.33;90.61;101483.25;5052015;28;20202;-77
2024/02/28 10:44:08;;;;;;;41.73;22.03;;;;;;;5.33;88.88;101483.25;5052206;28;20221;-79
2024/02/28 10:46:34;;;;;;;47.23;23.17;;;;;;;5.33;89.00;101485.88;5051805;28;20295;-79
2024/02/28 10:49:01;;;;;;;39.07;20.87;;;;;;;5.38;89.60;101483.09;5051788;28;20213;-77
2024/02/28 10:51:28;;;;;;;43.60;21.00;;;;;;;5.48;89.91;101484.56;5051197;28;20212;-79
2024/02/28 10:54:07;;;;;;;40.63;22.10;;;;;;;5.53;88.94;101490.59;5051513;28;20704;-79
2024/02/28 10:56:34;;;;;;;44.80;21.97;;;;;;;5.57;88.76;101482.53;5051969;28;20196;-79
2024/02/28 10:59:02;;;;;;;41.50;20.63;;;;;;;5.59;87.70;101479.84;5051863;28;20216;-79
2024/02/28 11:01:29;;;;;;;45.77;22.87;;;;;;;5.57;87.11;101481.66;5051934;28;20591;-78
2024/02/28 11:03:56;;;;;;;40.50;20.33;;;;;;;5.62;87.45;101479.75;5051712;28;20226;-79
2024/02/28 11:06:23;;;;;;;42.73;22.70;;;;;;;5.65;87.85;101471.72;5051892;28;20224;-78
2024/02/28 11:08:54;;;;;;;42.03;21.17;;;;;;;5.68;87.94;101473.41;5052165;28;20271;-79
2024/02/28 11:11:21;;;;;;;41.27;22.20;;;;;;;5.72;87.25;101465.38;5051888;28;20677;-79
2024/02/28 11:13:55;;;;;;;42.47;22.30;;;;;;;5.76;86.87;101466.97;5051887;28;20209;-78